sensor_id;sensor_type;location;lat;lon;timestamp;P1;durP1;ratioP1;P2;durP2;ratioP2
4810;SDS011;2419;51.276;6.472;2023-04-01T00:00:35;0.83;;;0.83;;
4810;SDS011;2419;51.276;6.472;2023-04-01T00:03:03;1.90;;;1.17;;
4810;SDS011;2419;51.276;6.472;2023-04-01T00:05:32;2.40;;;0.80;;
4810;SDS011;2419;51.276;6.472;2023-04-01T00:08:01;1.67;;;1.03;;
4810;SDS011;2419;51.276;6.472;2023-04-01T00:10:29;5.07;;;0.90;;
4810;SDS011;2419;51.276;6.472;2023-04-01T00:12:57;0.90;;;0.80;;
4810;SDS011;2419;51.276;6.472;2023-04-01T00:15:25;1.00;;;0.90;;
4810;SDS011;2419;51.276;6.472;2023-04-01T00:17:52;0.80;;;0.80;;
4810;SDS011;2419;51.276;6.472;2023-04-01T00:20:21;1.13;;;0.80;;
4810;SDS011;2419;51.276;6.472;2023-04-01T00:22:51;1.27;;;0.83;;
4810;SDS011;2419;51.276;6.472;2023-04-01T00:25:19;1.77;;;1.20;;
4810;SDS011;2419;51.276;6.472;2023-04-01T00:27:47;0.70;;;0.70;;
4810;SDS011;2419;51.276;6.472;2023-04-01T00:30:16;1.10;;;0.70;;
4810;SDS011;2419;51.276;6.472;2023-04-01T00:32:44;1.93;;;0.80;;
4810;SDS011;2419;51.276;6.472;2023-04-01T00:35:12;0.63;;;0.63;;
4810;SDS011;2419;51.276;6.472;2023-04-01T00:37:40;0.93;;;0.70;;
4810;SDS011;2419;51.276;6.472;2023-04-01T00:40:22;1.27;;;1.17;;
4810;SDS011;2419;51.276;6.472;2023-04-01T00:42:52;0.90;;;0.90;;
4810;SDS011;2419;51.276;6.472;2023-04-01T00:45:25;0.70;;;0.70;;
4810;SDS011;2419;51.276;6.472;2023-04-01T00:47:59;0.80;;;0.70;;
4810;SDS011;2419;51.276;6.472;2023-04-01T00:50:31;0.80;;;0.80;;
4810;SDS011;2419;51.276;6.472;2023-04-01T00:53:01;2.30;;;0.93;;
4810;SDS011;2419;51.276;6.472;2023-04-01T00:55:32;1.50;;;1.03;;
4810;SDS011;2419;51.276;6.472;2023-04-01T00:58:05;0.70;;;0.70;;
4810;SDS011;2419;51.276;6.472;2023-04-01T01:00:37;0.60;;;0.60;;
4810;SDS011;2419;51.276;6.472;2023-04-01T01:03:05;0.70;;;0.70;;
4810;SDS011;2419;51.276;6.472;2023-04-01T01:05:37;7.80;;;0.80;;
4810;SDS011;2419;51.276;6.472;2023-04-01T01:08:17;0.60;;;0.60;;
4810;SDS011;2419;51.276;6.472;2023-04-01T01:10:56;0.70;;;0.60;;
4810;SDS011;2419;51.276;6.472;2023-04-01T01:13:25;0.70;;;0.60;;
4810;SDS011;2419;51.276;6.472;2023-04-01T01:15:59;1.00;;;0.70;;
4810;SDS011;2419;51.276;6.472;2023-04-01T01:18:33;0.80;;;0.80;;
4810;SDS011;2419;51.276;6.472;2023-04-01T01:24:22;2.40;;;0.70;;
4810;SDS011;2419;51.276;6.472;2023-04-01T01:27:15;0.80;;;0.80;;
4810;SDS011;2419;51.276;6.472;2023-04-01T01:29:49;0.70;;;0.70;;
4810;SDS011;2419;51.276;6.472;2023-04-01T01:32:45;0.70;;;0.70;;
4810;SDS011;2419;51.276;6.472;2023-04-01T01:35:33;3.90;;;0.97;;
4810;SDS011;2419;51.276;6.472;2023-04-01T01:38:13;0.73;;;0.73;;
4810;SDS011;2419;51.276;6.472;2023-04-01T01:40:50;3.43;;;1.20;;
4810;SDS011;2419;51.276;6.472;2023-04-01T01:43:23;0.90;;;0.80;;
4810;SDS011;2419;51.276;6.472;2023-04-01T01:45:54;0.60;;;0.60;;
4810;SDS011;2419;51.276;6.472;2023-04-01T01:48:26;1.10;;;1.00;;
4810;SDS011;2419;51.276;6.472;2023-04-01T01:50:58;1.33;;;0.90;;
4810;SDS011;2419;51.276;6.472;2023-04-01T01:53:27;1.10;;;1.00;;
4810;SDS011;2419;51.276;6.472;2023-04-01T01:55:55;1.03;;;0.93;;
4810;SDS011;2419;51.276;6.472;2023-04-01T01:58:24;0.60;;;0.60;;
4810;SDS011;2419;51.276;6.472;2023-04-01T02:00:57;1.90;;;0.90;;
4810;SDS011;2419;51.276;6.472;2023-04-01T02:03:28;2.60;;;0.80;;
4810;SDS011;2419;51.276;6.472;2023-04-01T02:06:00;0.73;;;0.70;;
4810;SDS011;2419;51.276;6.472;2023-04-01T02:08:32;1.60;;;0.70;;
4810;SDS011;2419;51.276;6.472;2023-04-01T02:11:06;0.80;;;0.80;;
4810;SDS011;2419;51.276;6.472;2023-04-01T02:13:40;1.50;;;0.73;;
4810;SDS011;2419;51.276;6.472;2023-04-01T02:16:13;2.30;;;0.60;;
4810;SDS011;2419;51.276;6.472;2023-04-01T02:18:47;0.80;;;0.73;;
4810;SDS011;2419;51.276;6.472;2023-04-01T02:21:20;0.63;;;0.63;;
4810;SDS011;2419;51.276;6.472;2023-04-01T02:23:51;0.63;;;0.63;;
4810;SDS011;2419;51.276;6.472;2023-04-01T02:26:21;1.77;;;1.03;;
4810;SDS011;2419;51.276;6.472;2023-04-01T02:28:52;1.97;;;0.83;;
4810;SDS011;2419;51.276;6.472;2023-04-01T02:31:21;1.10;;;1.00;;
4810;SDS011;2419;51.276;6.472;2023-04-01T02:33:52;0.80;;;0.80;;
4810;SDS011;2419;51.276;6.472;2023-04-01T02:36:24;3.23;;;1.37;;
4810;SDS011;2419;51.276;6.472;2023-04-01T02:38:53;1.37;;;1.07;;
4810;SDS011;2419;51.276;6.472;2023-04-01T02:41:23;0.80;;;0.77;;
4810;SDS011;2419;51.276;6.472;2023-04-01T02:43:51;2.50;;;0.83;;
4810;SDS011;2419;51.276;6.472;2023-04-01T02:46:19;0.80;;;0.80;;
4810;SDS011;2419;51.276;6.472;2023-04-01T02:48:47;1.10;;;1.10;;
4810;SDS011;2419;51.276;6.472;2023-04-01T02:51:15;1.20;;;1.03;;
4810;SDS011;2419;51.276;6.472;2023-04-01T02:53:45;0.80;;;0.80;;
4810;SDS011;2419;51.276;6.472;2023-04-01T02:56:13;1.13;;;0.90;;
4810;SDS011;2419;51.276;6.472;2023-04-01T02:58:41;0.80;;;0.80;;
4810;SDS011;2419;51.276;6.472;2023-04-01T03:01:09;1.07;;;0.77;;
4810;SDS011;2419;51.276;6.472;2023-04-01T03:03:37;4.30;;;0.80;;
4810;SDS011;2419;51.276;6.472;2023-04-01T03:06:06;0.70;;;0.70;;
4810;SDS011;2419;51.276;6.472;2023-04-01T03:08:35;1.37;;;1.27;;
4810;SDS011;2419;51.276;6.472;2023-04-01T03:11:04;0.97;;;0.90;;
4810;SDS011;2419;51.276;6.472;2023-04-01T03:13:35;1.30;;;0.70;;
4810;SDS011;2419;51.276;6.472;2023-04-01T03:16:03;0.80;;;0.80;;
4810;SDS011;2419;51.276;6.472;2023-04-01T03:18:31;1.23;;;1.13;;
4810;SDS011;2419;51.276;6.472;2023-04-01T03:21:11;2.80;;;1.00;;
4810;SDS011;2419;51.276;6.472;2023-04-01T03:23:40;2.13;;;0.87;;
4810;SDS011;2419;51.276;6.472;2023-04-01T03:26:10;3.53;;;0.83;;
4810;SDS011;2419;51.276;6.472;2023-04-01T03:28:38;2.03;;;1.20;;
4810;SDS011;2419;51.276;6.472;2023-04-01T03:31:06;1.20;;;1.10;;
4810;SDS011;2419;51.276;6.472;2023-04-01T03:33:41;1.60;;;1.07;;
4810;SDS011;2419;51.276;6.472;2023-04-01T03:36:09;0.87;;;0.87;;
4810;SDS011;2419;51.276;6.472;2023-04-01T03:38:39;1.17;;;1.07;;
4810;SDS011;2419;51.276;6.472;2023-04-01T03:41:12;1.00;;;0.80;;
4810;SDS011;2419;51.276;6.472;2023-04-01T03:43:41;1.10;;;1.00;;
4810;SDS011;2419;51.276;6.472;2023-04-01T03:46:10;0.80;;;0.80;;
4810;SDS011;2419;51.276;6.472;2023-04-01T03:48:38;1.27;;;1.17;;
4810;SDS011;2419;51.276;6.472;2023-04-01T03:51:06;1.47;;;1.10;;
4810;SDS011;2419;51.276;6.472;2023-04-01T03:53:35;2.07;;;1.00;;
4810;SDS011;2419;51.276;6.472;2023-04-01T03:56:04;6.10;;;1.40;;
4810;SDS011;2419;51.276;6.472;2023-04-01T03:58:36;0.77;;;0.77;;
4810;SDS011;2419;51.276;6.472;2023-04-01T04:01:13;0.77;;;0.77;;
4810;SDS011;2419;51.276;6.472;2023-04-01T04:03:42;0.97;;;0.97;;
4810;SDS011;2419;51.276;6.472;2023-04-01T04:06:12;1.00;;;0.90;;
4810;SDS011;2419;51.276;6.472;2023-04-01T04:08:41;0.73;;;0.73;;
4810;SDS011;2419;51.276;6.472;2023-04-01T04:11:09;1.47;;;1.37;;
4810;SDS011;2419;51.276;6.472;2023-04-01T04:13:41;1.13;;;1.03;;
4810;SDS011;2419;51.276;6.472;2023-04-01T04:16:10;0.97;;;0.90;;
4810;SDS011;2419;51.276;6.472;2023-04-01T04:18:43;1.20;;;1.00;;
4810;SDS011;2419;51.276;6.472;2023-04-01T04:21:12;0.77;;;0.77;;
4810;SDS011;2419;51.276;6.472;2023-04-01T04:23:41;1.10;;;1.00;;
4810;SDS011;2419;51.276;6.472;2023-04-01T04:26:12;1.33;;;0.80;;
4810;SDS011;2419;51.276;6.472;2023-04-01T04:28:43;1.10;;;1.00;;
4810;SDS011;2419;51.276;6.472;2023-04-01T04:31:11;1.10;;;1.00;;
4810;SDS011;2419;51.276;6.472;2023-04-01T04:33:40;1.80;;;1.33;;
4810;SDS011;2419;51.276;6.472;2023-04-01T04:36:08;1.20;;;1.10;;
4810;SDS011;2419;51.276;6.472;2023-04-01T04:38:36;1.13;;;1.00;;
4810;SDS011;2419;51.276;6.472;2023-04-01T04:41:08;1.30;;;1.20;;
4810;SDS011;2419;51.276;6.472;2023-04-01T04:43:38;1.10;;;1.00;;
4810;SDS011;2419;51.276;6.472;2023-04-01T04:46:08;1.73;;;1.63;;
4810;SDS011;2419;51.276;6.472;2023-04-01T04:48:37;6.43;;;1.20;;
4810;SDS011;2419;51.276;6.472;2023-04-01T04:51:05;1.30;;;1.00;;
4810;SDS011;2419;51.276;6.472;2023-04-01T04:53:33;1.70;;;1.07;;
4810;SDS011;2419;51.276;6.472;2023-04-01T04:56:01;2.70;;;1.30;;
4810;SDS011;2419;51.276;6.472;2023-04-01T04:58:39;2.60;;;1.10;;
4810;SDS011;2419;51.276;6.472;2023-04-01T05:01:11;1.23;;;1.10;;
4810;SDS011;2419;51.276;6.472;2023-04-01T05:03:42;2.20;;;1.30;;
4810;SDS011;2419;51.276;6.472;2023-04-01T05:06:11;1.50;;;1.30;;
4810;SDS011;2419;51.276;6.472;2023-04-01T05:08:40;1.43;;;1.33;;
4810;SDS011;2419;51.276;6.472;2023-04-01T05:11:10;1.87;;;1.00;;
4810;SDS011;2419;51.276;6.472;2023-04-01T05:13:42;1.50;;;1.40;;
4810;SDS011;2419;51.276;6.472;2023-04-01T05:16:13;1.83;;;1.60;;
4810;SDS011;2419;51.276;6.472;2023-04-01T05:18:43;2.13;;;1.37;;
4810;SDS011;2419;51.276;6.472;2023-04-01T05:21:12;1.70;;;1.60;;
4810;SDS011;2419;51.276;6.472;2023-04-01T05:23:41;2.17;;;1.70;;
4810;SDS011;2419;51.276;6.472;2023-04-01T05:26:10;1.60;;;1.50;;
4810;SDS011;2419;51.276;6.472;2023-04-01T05:28:40;4.40;;;1.67;;
4810;SDS011;2419;51.276;6.472;2023-04-01T05:31:08;2.70;;;2.13;;
4810;SDS011;2419;51.276;6.472;2023-04-01T05:33:40;2.37;;;1.77;;
4810;SDS011;2419;51.276;6.472;2023-04-01T05:36:09;3.50;;;1.57;;
4810;SDS011;2419;51.276;6.472;2023-04-01T05:38:38;1.70;;;1.50;;
4810;SDS011;2419;51.276;6.472;2023-04-01T05:41:09;1.90;;;1.80;;
4810;SDS011;2419;51.276;6.472;2023-04-01T05:43:41;1.80;;;1.40;;
4810;SDS011;2419;51.276;6.472;2023-04-01T05:46:28;1.67;;;1.57;;
4810;SDS011;2419;51.276;6.472;2023-04-01T05:49:05;2.10;;;1.97;;
4810;SDS011;2419;51.276;6.472;2023-04-01T05:51:33;1.90;;;1.80;;
4810;SDS011;2419;51.276;6.472;2023-04-01T05:54:02;2.70;;;2.17;;
4810;SDS011;2419;51.276;6.472;2023-04-01T05:56:32;5.97;;;2.20;;
4810;SDS011;2419;51.276;6.472;2023-04-01T05:59:01;5.07;;;3.00;;
4810;SDS011;2419;51.276;6.472;2023-04-01T06:01:29;2.30;;;2.10;;
4810;SDS011;2419;51.276;6.472;2023-04-01T06:03:57;3.83;;;2.47;;
4810;SDS011;2419;51.276;6.472;2023-04-01T06:06:27;4.20;;;1.90;;
4810;SDS011;2419;51.276;6.472;2023-04-01T06:09:16;3.03;;;2.37;;
4810;SDS011;2419;51.276;6.472;2023-04-01T06:11:56;3.63;;;2.60;;
4810;SDS011;2419;51.276;6.472;2023-04-01T06:14:57;2.90;;;2.33;;
4810;SDS011;2419;51.276;6.472;2023-04-01T06:17:43;5.00;;;2.77;;
4810;SDS011;2419;51.276;6.472;2023-04-01T06:20:23;2.20;;;1.90;;
4810;SDS011;2419;51.276;6.472;2023-04-01T06:23:09;2.43;;;2.20;;
4810;SDS011;2419;51.276;6.472;2023-04-01T06:25:51;2.37;;;2.10;;
4810;SDS011;2419;51.276;6.472;2023-04-01T06:31:33;1.70;;;1.60;;
4810;SDS011;2419;51.276;6.472;2023-04-01T06:34:41;3.30;;;2.30;;
4810;SDS011;2419;51.276;6.472;2023-04-01T06:37:29;1.70;;;1.60;;
4810;SDS011;2419;51.276;6.472;2023-04-01T06:40:30;1.70;;;1.60;;
4810;SDS011;2419;51.276;6.472;2023-04-01T06:43:21;2.97;;;2.37;;
4810;SDS011;2419;51.276;6.472;2023-04-01T06:46:15;4.33;;;2.07;;
4810;SDS011;2419;51.276;6.472;2023-04-01T06:49:33;2.67;;;2.20;;
4810;SDS011;2419;51.276;6.472;2023-04-01T06:52:48;1.47;;;1.37;;
4810;SDS011;2419;51.276;6.472;2023-04-01T06:55:43;2.27;;;2.07;;
4810;SDS011;2419;51.276;6.472;2023-04-01T06:58:34;3.13;;;2.13;;
4810;SDS011;2419;51.276;6.472;2023-04-01T07:01:07;3.30;;;2.70;;
4810;SDS011;2419;51.276;6.472;2023-04-01T07:03:38;2.47;;;2.27;;
4810;SDS011;2419;51.276;6.472;2023-04-01T07:06:13;2.37;;;2.07;;
4810;SDS011;2419;51.276;6.472;2023-04-01T07:08:52;2.73;;;2.10;;
4810;SDS011;2419;51.276;6.472;2023-04-01T07:11:26;2.77;;;2.40;;
4810;SDS011;2419;51.276;6.472;2023-04-01T07:14:17;3.47;;;2.13;;
4810;SDS011;2419;51.276;6.472;2023-04-01T07:16:51;8.03;;;2.50;;
4810;SDS011;2419;51.276;6.472;2023-04-01T07:19:24;2.30;;;2.10;;
4810;SDS011;2419;51.276;6.472;2023-04-01T07:22:04;4.00;;;1.77;;
4810;SDS011;2419;51.276;6.472;2023-04-01T07:25:01;1.60;;;1.50;;
4810;SDS011;2419;51.276;6.472;2023-04-01T07:27:37;1.97;;;1.83;;
4810;SDS011;2419;51.276;6.472;2023-04-01T07:30:07;2.00;;;1.90;;
4810;SDS011;2419;51.276;6.472;2023-04-01T07:32:42;1.83;;;1.73;;
4810;SDS011;2419;51.276;6.472;2023-04-01T07:35:21;2.87;;;2.50;;
4810;SDS011;2419;51.276;6.472;2023-04-01T07:37:56;5.87;;;2.20;;
4810;SDS011;2419;51.276;6.472;2023-04-01T07:40:36;2.37;;;2.17;;
4810;SDS011;2419;51.276;6.472;2023-04-01T07:43:25;2.47;;;2.27;;
4810;SDS011;2419;51.276;6.472;2023-04-01T07:46:19;2.47;;;2.27;;
4810;SDS011;2419;51.276;6.472;2023-04-01T07:48:58;2.10;;;1.90;;
4810;SDS011;2419;51.276;6.472;2023-04-01T07:51:31;2.30;;;2.10;;
4810;SDS011;2419;51.276;6.472;2023-04-01T07:54:08;2.17;;;1.97;;
4810;SDS011;2419;51.276;6.472;2023-04-01T07:56:42;2.77;;;2.47;;
4810;SDS011;2419;51.276;6.472;2023-04-01T07:59:20;2.20;;;1.87;;
4810;SDS011;2419;51.276;6.472;2023-04-01T08:02:10;1.80;;;1.70;;
4810;SDS011;2419;51.276;6.472;2023-04-01T08:04:51;2.10;;;1.90;;
4810;SDS011;2419;51.276;6.472;2023-04-01T08:07:25;4.57;;;2.20;;
4810;SDS011;2419;51.276;6.472;2023-04-01T08:10:27;2.17;;;1.97;;
4810;SDS011;2419;51.276;6.472;2023-04-01T08:13:21;1.90;;;1.80;;
4810;SDS011;2419;51.276;6.472;2023-04-01T08:16:28;2.13;;;1.93;;
4810;SDS011;2419;51.276;6.472;2023-04-01T08:19:05;4.07;;;2.20;;
4810;SDS011;2419;51.276;6.472;2023-04-01T08:21:44;3.97;;;2.67;;
4810;SDS011;2419;51.276;6.472;2023-04-01T08:24:17;2.93;;;2.47;;
4810;SDS011;2419;51.276;6.472;2023-04-01T08:26:52;3.33;;;2.50;;
4810;SDS011;2419;51.276;6.472;2023-04-01T08:29:25;3.60;;;2.80;;
4810;SDS011;2419;51.276;6.472;2023-04-01T08:32:05;4.47;;;3.60;;
4810;SDS011;2419;51.276;6.472;2023-04-01T08:34:37;3.70;;;3.00;;
4810;SDS011;2419;51.276;6.472;2023-04-01T08:37:17;3.53;;;2.80;;
4810;SDS011;2419;51.276;6.472;2023-04-01T08:39:54;4.30;;;3.50;;
4810;SDS011;2419;51.276;6.472;2023-04-01T08:42:31;4.87;;;3.03;;
4810;SDS011;2419;51.276;6.472;2023-04-01T08:45:16;6.90;;;3.90;;
4810;SDS011;2419;51.276;6.472;2023-04-01T08:48:04;2.97;;;2.67;;
4810;SDS011;2419;51.276;6.472;2023-04-01T08:51:02;6.67;;;4.60;;
4810;SDS011;2419;51.276;6.472;2023-04-01T08:53:56;5.30;;;3.60;;
4810;SDS011;2419;51.276;6.472;2023-04-01T08:56:37;7.00;;;4.00;;
4810;SDS011;2419;51.276;6.472;2023-04-01T08:59:18;7.00;;;3.60;;
4810;SDS011;2419;51.276;6.472;2023-04-01T09:02:02;5.47;;;3.80;;
4810;SDS011;2419;51.276;6.472;2023-04-01T09:05:05;8.93;;;4.73;;
4810;SDS011;2419;51.276;6.472;2023-04-01T09:07:51;6.20;;;4.93;;
4810;SDS011;2419;51.276;6.472;2023-04-01T09:10:32;5.00;;;3.40;;
4810;SDS011;2419;51.276;6.472;2023-04-01T09:13:44;7.13;;;4.07;;
4810;SDS011;2419;51.276;6.472;2023-04-01T09:16:26;5.30;;;4.40;;
4810;SDS011;2419;51.276;6.472;2023-04-01T09:19:20;6.27;;;4.50;;
4810;SDS011;2419;51.276;6.472;2023-04-01T09:21:58;8.30;;;5.30;;
4810;SDS011;2419;51.276;6.472;2023-04-01T09:28:07;7.07;;;4.87;;
4810;SDS011;2419;51.276;6.472;2023-04-01T09:37:20;6.67;;;4.93;;
4810;SDS011;2419;51.276;6.472;2023-04-01T09:40:00;7.67;;;4.50;;
4810;SDS011;2419;51.276;6.472;2023-04-01T09:42:44;7.90;;;4.60;;
4810;SDS011;2419;51.276;6.472;2023-04-01T09:45:32;9.67;;;5.20;;
4810;SDS011;2419;51.276;6.472;2023-04-01T09:48:14;9.77;;;6.00;;
4810;SDS011;2419;51.276;6.472;2023-04-01T09:50:52;9.63;;;5.10;;
4810;SDS011;2419;51.276;6.472;2023-04-01T09:53:35;8.53;;;5.67;;
4810;SDS011;2419;51.276;6.472;2023-04-01T09:56:32;8.40;;;5.37;;
4810;SDS011;2419;51.276;6.472;2023-04-01T09:59:37;6.10;;;4.97;;
4810;SDS011;2419;51.276;6.472;2023-04-01T10:02:54;6.83;;;4.90;;
4810;SDS011;2419;51.276;6.472;2023-04-01T10:12:20;5.00;;;3.70;;
4810;SDS011;2419;51.276;6.472;2023-04-01T10:21:25;3.97;;;3.30;;
4810;SDS011;2419;51.276;6.472;2023-04-01T10:27:37;5.47;;;3.57;;
4810;SDS011;2419;51.276;6.472;2023-04-01T10:30:44;4.27;;;3.50;;
4810;SDS011;2419;51.276;6.472;2023-04-01T10:36:48;4.17;;;3.40;;
4810;SDS011;2419;51.276;6.472;2023-04-01T10:43:01;4.37;;;3.33;;
4810;SDS011;2419;51.276;6.472;2023-04-01T10:49:07;7.00;;;4.33;;
4810;SDS011;2419;51.276;6.472;2023-04-01T10:52:12;5.60;;;3.87;;
4810;SDS011;2419;51.276;6.472;2023-04-01T10:55:29;5.00;;;4.03;;
4810;SDS011;2419;51.276;6.472;2023-04-01T10:58:44;6.13;;;4.33;;
4810;SDS011;2419;51.276;6.472;2023-04-01T11:05:58;5.30;;;4.00;;
4810;SDS011;2419;51.276;6.472;2023-04-01T11:21:43;5.50;;;3.80;;
4810;SDS011;2419;51.276;6.472;2023-04-01T11:27:44;4.50;;;4.10;;
4810;SDS011;2419;51.276;6.472;2023-04-01T11:30:29;7.00;;;4.77;;
4810;SDS011;2419;51.276;6.472;2023-04-01T11:33:09;4.97;;;3.40;;
4810;SDS011;2419;51.276;6.472;2023-04-01T11:35:49;5.90;;;4.50;;
4810;SDS011;2419;51.276;6.472;2023-04-01T11:38:31;6.10;;;3.93;;
4810;SDS011;2419;51.276;6.472;2023-04-01T11:41:43;5.40;;;3.90;;
4810;SDS011;2419;51.276;6.472;2023-04-01T11:44:39;5.50;;;3.90;;
4810;SDS011;2419;51.276;6.472;2023-04-01T11:47:19;8.90;;;3.43;;
4810;SDS011;2419;51.276;6.472;2023-04-01T11:49:58;5.07;;;3.77;;
4810;SDS011;2419;51.276;6.472;2023-04-01T11:55:43;6.10;;;4.07;;
4810;SDS011;2419;51.276;6.472;2023-04-01T12:01:25;4.80;;;4.30;;
4810;SDS011;2419;51.276;6.472;2023-04-01T12:04:03;7.07;;;4.10;;
4810;SDS011;2419;51.276;6.472;2023-04-01T12:06:48;8.13;;;5.33;;
4810;SDS011;2419;51.276;6.472;2023-04-01T12:09:25;11.17;;;5.00;;
4810;SDS011;2419;51.276;6.472;2023-04-01T12:12:09;5.57;;;4.60;;
4810;SDS011;2419;51.276;6.472;2023-04-01T12:14:43;6.63;;;4.90;;
4810;SDS011;2419;51.276;6.472;2023-04-01T12:17:27;6.13;;;4.33;;
4810;SDS011;2419;51.276;6.472;2023-04-01T12:20:12;5.97;;;4.33;;
4810;SDS011;2419;51.276;6.472;2023-04-01T12:22:55;6.63;;;4.00;;
4810;SDS011;2419;51.276;6.472;2023-04-01T12:25:42;5.20;;;3.80;;
4810;SDS011;2419;51.276;6.472;2023-04-01T12:28:36;5.33;;;3.93;;
4810;SDS011;2419;51.276;6.472;2023-04-01T12:34:16;7.40;;;4.47;;
4810;SDS011;2419;51.276;6.472;2023-04-01T12:37:03;5.40;;;4.30;;
4810;SDS011;2419;51.276;6.472;2023-04-01T12:39:42;4.70;;;4.17;;
4810;SDS011;2419;51.276;6.472;2023-04-01T12:42:33;6.10;;;4.00;;
4810;SDS011;2419;51.276;6.472;2023-04-01T12:45:15;5.67;;;4.20;;
4810;SDS011;2419;51.276;6.472;2023-04-01T12:48:04;3.50;;;2.73;;
4810;SDS011;2419;51.276;6.472;2023-04-01T12:50:52;3.43;;;3.13;;
4810;SDS011;2419;51.276;6.472;2023-04-01T12:53:44;3.30;;;2.53;;
4810;SDS011;2419;51.276;6.472;2023-04-01T12:56:28;2.40;;;2.20;;
4810;SDS011;2419;51.276;6.472;2023-04-01T12:59:13;2.70;;;2.30;;
4810;SDS011;2419;51.276;6.472;2023-04-01T13:01:59;3.77;;;2.70;;
4810;SDS011;2419;51.276;6.472;2023-04-01T13:04:34;2.87;;;2.40;;
4810;SDS011;2419;51.276;6.472;2023-04-01T13:07:22;3.60;;;3.00;;
4810;SDS011;2419;51.276;6.472;2023-04-01T13:10:02;5.20;;;2.83;;
4810;SDS011;2419;51.276;6.472;2023-04-01T13:12:43;3.30;;;2.40;;
4810;SDS011;2419;51.276;6.472;2023-04-01T13:15:36;5.10;;;2.57;;
4810;SDS011;2419;51.276;6.472;2023-04-01T13:18:15;2.60;;;2.40;;
4810;SDS011;2419;51.276;6.472;2023-04-01T13:20:54;5.13;;;3.53;;
4810;SDS011;2419;51.276;6.472;2023-04-01T13:23:43;4.33;;;2.53;;
4810;SDS011;2419;51.276;6.472;2023-04-01T13:26:22;4.13;;;3.40;;
4810;SDS011;2419;51.276;6.472;2023-04-01T13:28:56;6.10;;;2.87;;
4810;SDS011;2419;51.276;6.472;2023-04-01T13:31:40;2.50;;;2.30;;
4810;SDS011;2419;51.276;6.472;2023-04-01T13:34:22;3.43;;;2.60;;
4810;SDS011;2419;51.276;6.472;2023-04-01T13:37:03;2.07;;;1.87;;
4810;SDS011;2419;51.276;6.472;2023-04-01T13:39:48;2.53;;;2.33;;
4810;SDS011;2419;51.276;6.472;2023-04-01T13:42:24;3.47;;;2.60;;
4810;SDS011;2419;51.276;6.472;2023-04-01T13:44:56;2.20;;;2.00;;
4810;SDS011;2419;51.276;6.472;2023-04-01T13:47:34;2.50;;;2.30;;
4810;SDS011;2419;51.276;6.472;2023-04-01T13:50:25;3.63;;;2.33;;
4810;SDS011;2419;51.276;6.472;2023-04-01T13:53:04;3.00;;;2.37;;
4810;SDS011;2419;51.276;6.472;2023-04-01T13:55:56;2.17;;;1.97;;
4810;SDS011;2419;51.276;6.472;2023-04-01T14:01:33;4.70;;;2.77;;
4810;SDS011;2419;51.276;6.472;2023-04-01T14:04:17;4.70;;;2.87;;
4810;SDS011;2419;51.276;6.472;2023-04-01T14:07:05;2.77;;;2.07;;
4810;SDS011;2419;51.276;6.472;2023-04-01T14:09:45;1.93;;;1.80;;
4810;SDS011;2419;51.276;6.472;2023-04-01T14:12:30;3.03;;;2.17;;
4810;SDS011;2419;51.276;6.472;2023-04-01T14:18:13;2.07;;;1.60;;
4810;SDS011;2419;51.276;6.472;2023-04-01T14:21:07;2.07;;;1.87;;
4810;SDS011;2419;51.276;6.472;2023-04-01T14:23:52;2.30;;;2.00;;
4810;SDS011;2419;51.276;6.472;2023-04-01T14:26:50;2.90;;;2.07;;
4810;SDS011;2419;51.276;6.472;2023-04-01T14:29:39;2.07;;;1.70;;
4810;SDS011;2419;51.276;6.472;2023-04-01T14:32:16;1.60;;;1.50;;
4810;SDS011;2419;51.276;6.472;2023-04-01T14:34:59;2.13;;;1.93;;
4810;SDS011;2419;51.276;6.472;2023-04-01T14:37:56;2.93;;;1.50;;
4810;SDS011;2419;51.276;6.472;2023-04-01T14:40:36;4.23;;;2.20;;
4810;SDS011;2419;51.276;6.472;2023-04-01T14:43:28;2.73;;;2.50;;
4810;SDS011;2419;51.276;6.472;2023-04-01T14:49:22;2.53;;;2.30;;
4810;SDS011;2419;51.276;6.472;2023-04-01T14:52:03;3.60;;;2.00;;
4810;SDS011;2419;51.276;6.472;2023-04-01T14:54:37;2.87;;;2.23;;
4810;SDS011;2419;51.276;6.472;2023-04-01T14:57:10;2.50;;;2.27;;
4810;SDS011;2419;51.276;6.472;2023-04-01T14:59:40;5.10;;;2.73;;
4810;SDS011;2419;51.276;6.472;2023-04-01T15:02:16;2.27;;;2.03;;
4810;SDS011;2419;51.276;6.472;2023-04-01T15:05:10;3.73;;;2.70;;
4810;SDS011;2419;51.276;6.472;2023-04-01T15:13:49;3.03;;;2.33;;
4810;SDS011;2419;51.276;6.472;2023-04-01T15:16:37;3.03;;;2.40;;
4810;SDS011;2419;51.276;6.472;2023-04-01T15:19:14;3.70;;;2.43;;
4810;SDS011;2419;51.276;6.472;2023-04-01T15:21:57;3.23;;;2.50;;
4810;SDS011;2419;51.276;6.472;2023-04-01T15:24:44;2.13;;;1.93;;
4810;SDS011;2419;51.276;6.472;2023-04-01T15:27:27;2.03;;;1.80;;
4810;SDS011;2419;51.276;6.472;2023-04-01T15:30:27;1.70;;;1.60;;
4810;SDS011;2419;51.276;6.472;2023-04-01T15:33:02;1.97;;;1.87;;
4810;SDS011;2419;51.276;6.472;2023-04-01T15:35:43;2.20;;;2.00;;
4810;SDS011;2419;51.276;6.472;2023-04-01T15:38:21;2.40;;;2.20;;
4810;SDS011;2419;51.276;6.472;2023-04-01T15:41:02;2.43;;;2.20;;
4810;SDS011;2419;51.276;6.472;2023-04-01T15:43:40;1.93;;;1.83;;
4810;SDS011;2419;51.276;6.472;2023-04-01T15:46:14;2.60;;;1.73;;
4810;SDS011;2419;51.276;6.472;2023-04-01T15:48:57;1.60;;;1.43;;
4810;SDS011;2419;51.276;6.472;2023-04-01T15:51:43;1.90;;;1.80;;
4810;SDS011;2419;51.276;6.472;2023-04-01T15:54:28;1.33;;;1.23;;
4810;SDS011;2419;51.276;6.472;2023-04-01T15:57:20;1.77;;;1.67;;
4810;SDS011;2419;51.276;6.472;2023-04-01T16:00:02;2.33;;;2.10;;
4810;SDS011;2419;51.276;6.472;2023-04-01T16:02:40;2.13;;;2.03;;
4810;SDS011;2419;51.276;6.472;2023-04-01T16:05:22;3.83;;;2.27;;
4810;SDS011;2419;51.276;6.472;2023-04-01T16:08:08;4.00;;;3.20;;
4810;SDS011;2419;51.276;6.472;2023-04-01T16:10:52;3.00;;;2.70;;
4810;SDS011;2419;51.276;6.472;2023-04-01T16:13:31;3.27;;;2.70;;
4810;SDS011;2419;51.276;6.472;2023-04-01T16:16:14;2.70;;;2.50;;
4810;SDS011;2419;51.276;6.472;2023-04-01T16:18:54;1.93;;;1.73;;
4810;SDS011;2419;51.276;6.472;2023-04-01T16:21:45;2.60;;;2.40;;
4810;SDS011;2419;51.276;6.472;2023-04-01T16:24:17;2.77;;;2.43;;
4810;SDS011;2419;51.276;6.472;2023-04-01T16:26:52;2.83;;;2.50;;
4810;SDS011;2419;51.276;6.472;2023-04-01T16:29:27;3.47;;;3.03;;
4810;SDS011;2419;51.276;6.472;2023-04-01T16:32:05;2.60;;;2.40;;
4810;SDS011;2419;51.276;6.472;2023-04-01T16:34:44;3.03;;;2.67;;
4810;SDS011;2419;51.276;6.472;2023-04-01T16:37:21;3.87;;;2.53;;
4810;SDS011;2419;51.276;6.472;2023-04-01T16:40:02;3.70;;;2.30;;
4810;SDS011;2419;51.276;6.472;2023-04-01T16:42:46;3.10;;;2.30;;
4810;SDS011;2419;51.276;6.472;2023-04-01T16:45:24;4.77;;;2.87;;
4810;SDS011;2419;51.276;6.472;2023-04-01T16:48:01;4.20;;;3.17;;
4810;SDS011;2419;51.276;6.472;2023-04-01T16:50:39;3.00;;;2.70;;
4810;SDS011;2419;51.276;6.472;2023-04-01T16:53:17;2.37;;;2.17;;
4810;SDS011;2419;51.276;6.472;2023-04-01T16:55:50;7.43;;;2.70;;
4810;SDS011;2419;51.276;6.472;2023-04-01T16:58:33;2.67;;;2.33;;
4810;SDS011;2419;51.276;6.472;2023-04-01T17:01:03;2.13;;;2.00;;
4810;SDS011;2419;51.276;6.472;2023-04-01T17:03:38;4.03;;;2.37;;
4810;SDS011;2419;51.276;6.472;2023-04-01T17:06:21;2.93;;;2.17;;
4810;SDS011;2419;51.276;6.472;2023-04-01T17:09:17;2.40;;;2.20;;
4810;SDS011;2419;51.276;6.472;2023-04-01T17:11:54;2.27;;;2.07;;
4810;SDS011;2419;51.276;6.472;2023-04-01T17:14:29;2.07;;;1.83;;
4810;SDS011;2419;51.276;6.472;2023-04-01T17:17:10;4.63;;;3.17;;
4810;SDS011;2419;51.276;6.472;2023-04-01T17:20:02;4.37;;;3.97;;
4810;SDS011;2419;51.276;6.472;2023-04-01T17:22:44;2.50;;;2.30;;
4810;SDS011;2419;51.276;6.472;2023-04-01T17:25:20;3.80;;;3.30;;
4810;SDS011;2419;51.276;6.472;2023-04-01T17:28:23;3.03;;;2.73;;
4810;SDS011;2419;51.276;6.472;2023-04-01T17:31:05;5.53;;;3.60;;
4810;SDS011;2419;51.276;6.472;2023-04-01T17:33:53;3.27;;;2.27;;
4810;SDS011;2419;51.276;6.472;2023-04-01T17:36:33;2.10;;;1.70;;
4810;SDS011;2419;51.276;6.472;2023-04-01T17:39:24;3.17;;;2.37;;
4810;SDS011;2419;51.276;6.472;2023-04-01T17:42:05;3.03;;;2.70;;
4810;SDS011;2419;51.276;6.472;2023-04-01T17:44:39;3.30;;;2.47;;
4810;SDS011;2419;51.276;6.472;2023-04-01T17:47:21;3.60;;;3.20;;
4810;SDS011;2419;51.276;6.472;2023-04-01T17:53:09;2.87;;;2.33;;
4810;SDS011;2419;51.276;6.472;2023-04-01T17:55:50;3.90;;;2.57;;
4810;SDS011;2419;51.276;6.472;2023-04-01T17:58:28;2.77;;;2.57;;